Ginys del Meteocat
Campanya meteocatpedra

Dades de l'estació automàtica Tivissa

?
?
Resum diari 21:30 TU
Dades diàries de l'estació meteorològica
Temperatura mitjana 18.8 °C
Temperatura màxima 25.4 °C 13:03 TU
Temperatura mínima 12.3 °C 3:19 TU
Humitat relativa mitjana 59%
Precipitació acumulada 0.0 mm
Ratxa màxima del vent (10 m) 26.6 km/h - 171º 16:23 TU
Irradiació solar global 12.8 MJ/m2

El tram horari està expressat en Temps Universal (TU). Cal sumar una hora en horari d'hivern i dues en horari d'estiu per passar a l'hora oficial.

Tivissa

Metadades estació meteorol´gica
Municipi Tivissa
Comarca Ribera d'Ebre
Altitud 317 m
Data alta 26.03.2015
Estat actual Operativa
Dades de període
Període
TU
TM
°C
TX
°C
TN
°C
HRM
%
PPT
mm
VVM (10 m)
km/h
DVM (10 m)
graus
VVX (10 m)
km/h
RS
W/m2
00:00 - 00:30 13.6 13.9 13.4 69 0.0 5.4 109 9.0 0
00:30 - 01:00 13.8 14.1 13.4 69 0.0 3.2 191 9.7 0
01:00 - 01:30 13.5 13.9 13.2 71 0.0 3.2 132 9.4 0
01:30 - 02:00 13.8 14.5 13.2 70 0.0 6.5 152 15.5 0
02:00 - 02:30 13.6 14.0 13.3 71 0.0 6.1 131 14.8 0
02:30 - 03:00 13.7 14.0 13.2 70 0.0 4.3 111 12.2 0
03:00 - 03:30 12.9 13.4 12.3 74 0.0 2.9 107 5.8 0
03:30 - 04:00 13.0 13.9 12.5 73 0.0 4.3 109 10.1 0
04:00 - 04:30 13.6 13.9 13.2 71 0.0 1.4 161 5.4 0
04:30 - 05:00 13.4 13.9 12.8 72 0.0 1.1 127 5.0 0
05:00 - 05:30 13.6 13.9 13.4 72 0.0 2.5 134 7.2 0
05:30 - 06:00 13.8 14.9 12.9 73 0.0 4.3 130 8.3 0
06:00 - 06:30 13.7 14.1 13.4 75 0.0 4.7 120 11.9 6
06:30 - 07:00 14.4 14.7 13.9 74 0.0 4.0 112 9.7 32
07:00 - 07:30 14.5 15.0 14.2 75 0.0 1.4 153 4.3 83
07:30 - 08:00 16.6 17.4 15.0 71 0.0 2.2 167 5.8 155
08:00 - 08:30 17.4 17.7 17.1 66 0.0 1.4 257 4.0 256
08:30 - 09:00 18.2 19.0 17.8 62 0.0 1.4 267 5.4 313
09:00 - 09:30 19.5 20.6 19.1 59 0.0 1.1 303 3.2 375
09:30 - 10:00 20.7 21.2 20.1 55 0.0 4.0 318 9.0 420
10:00 - 10:30 21.1 22.5 20.0 53 0.0 3.6 303 8.6 514
10:30 - 11:00 22.9 23.9 21.8 49 0.0 3.2 243 7.6 651
11:00 - 11:30 23.4 24.4 22.6 48 0.0 6.1 334 16.9 664
11:30 - 12:00 23.4 23.9 22.9 49 0.0 7.6 345 15.5 508
12:00 - 12:30 23.7 25.2 22.9 48 0.0 6.8 344 16.9 598
12:30 - 13:00 24.8 25.3 24.2 45 0.0 5.4 321 14.0 578
13:00 - 13:30 24.8 25.4 24.1 45 0.0 6.5 272 14.8 439
13:30 - 14:00 24.5 25.3 24.1 45 0.0 6.8 306 14.4 418
14:00 - 14:30 24.3 24.6 24.1 46 0.0 5.4 314 10.8 350
14:30 - 15:00 23.7 24.5 23.3 48 0.0 11.2 184 17.3 213
15:00 - 15:30 23.3 23.6 23.0 50 0.0 13.3 180 22.7 259
15:30 - 16:00 23.3 23.5 23.0 50 0.0 10.8 175 20.5 177
16:00 - 16:30 22.7 23.1 22.1 50 0.0 13.7 180 26.6 111
16:30 - 17:00 21.6 22.1 21.2 49 0.0 12.2 166 22.3 29
17:00 - 17:30 21.1 21.3 20.9 49 0.0 13.3 156 22.7 2
17:30 - 18:00 21.2 21.4 20.4 47 0.0 12.6 143 22.0 0
18:00 - 18:30 20.2 20.3 20.0 49 0.0 10.4 127 15.5 0
18:30 - 19:00 19.9 20.8 19.4 50 0.0 9.4 132 16.6 0
19:00 - 19:30 21.1 21.3 20.9 46 0.0 10.8 153 18.0 0
19:30 - 20:00 21.1 21.3 20.9 46 0.0 9.0 168 18.4 0
20:00 - 20:30 20.0 21.2 18.8 50 0.0 5.0 212 16.9 0
20:30 - 21:00 19.1 19.8 18.5 55 0.0 4.7 166 11.2 0
21:00 - 21:30 19.3 20.3 18.3 59 0.0 7.9 176 20.9 0
21:30 - 22:00 18.3 20.0 17.5 58 0.0 4.7 251 9.7 0

Les dades en taronja només han passat un control de qualitat automàtic. Resta pendent la seva validació definitiva.